sensor_id;sensor_type;location;lat;lon;timestamp;P1;durP1;ratioP1;P2;durP2;ratioP2
39104;SDS011;46464;51.154;13.812;2022-12-18T00:02:11;41.38;;;22.00;;
39104;SDS011;46464;51.154;13.812;2022-12-18T00:04:38;44.80;;;22.15;;
39104;SDS011;46464;51.154;13.812;2022-12-18T00:07:04;43.65;;;21.85;;
39104;SDS011;46464;51.154;13.812;2022-12-18T00:09:31;50.15;;;24.23;;
39104;SDS011;46464;51.154;13.812;2022-12-18T00:12:05;45.17;;;22.23;;
39104;SDS011;46464;51.154;13.812;2022-12-18T00:14:40;44.73;;;21.63;;
39104;SDS011;46464;51.154;13.812;2022-12-18T00:17:10;39.90;;;20.27;;
39104;SDS011;46464;51.154;13.812;2022-12-18T00:19:36;41.60;;;21.52;;
39104;SDS011;46464;51.154;13.812;2022-12-18T00:22:03;46.97;;;23.40;;
39104;SDS011;46464;51.154;13.812;2022-12-18T00:24:29;58.15;;;28.38;;
39104;SDS011;46464;51.154;13.812;2022-12-18T00:26:56;67.55;;;34.17;;
39104;SDS011;46464;51.154;13.812;2022-12-18T00:29:22;65.15;;;31.95;;
39104;SDS011;46464;51.154;13.812;2022-12-18T00:31:49;56.33;;;29.27;;
39104;SDS011;46464;51.154;13.812;2022-12-18T00:34:15;63.22;;;30.60;;
39104;SDS011;46464;51.154;13.812;2022-12-18T00:36:42;64.57;;;31.60;;
39104;SDS011;46464;51.154;13.812;2022-12-18T00:39:09;61.85;;;31.45;;
39104;SDS011;46464;51.154;13.812;2022-12-18T00:41:37;65.47;;;32.50;;
39104;SDS011;46464;51.154;13.812;2022-12-18T00:44:22;74.28;;;34.08;;
39104;SDS011;46464;51.154;13.812;2022-12-18T00:46:49;65.18;;;30.63;;
39104;SDS011;46464;51.154;13.812;2022-12-18T00:49:16;59.63;;;30.02;;
39104;SDS011;46464;51.154;13.812;2022-12-18T00:51:45;58.40;;;25.87;;
39104;SDS011;46464;51.154;13.812;2022-12-18T00:54:12;53.60;;;25.63;;
39104;SDS011;46464;51.154;13.812;2022-12-18T00:56:39;54.17;;;26.52;;
39104;SDS011;46464;51.154;13.812;2022-12-18T00:59:14;53.83;;;26.70;;
39104;SDS011;46464;51.154;13.812;2022-12-18T01:04:07;49.40;;;23.33;;
39104;SDS011;46464;51.154;13.812;2022-12-18T01:11:27;48.10;;;22.77;;
39104;SDS011;46464;51.154;13.812;2022-12-18T01:13:54;44.60;;;21.17;;
39104;SDS011;46464;51.154;13.812;2022-12-18T01:18:50;56.80;;;22.67;;
39104;SDS011;46464;51.154;13.812;2022-12-18T01:21:20;62.27;;;27.20;;
39104;SDS011;46464;51.154;13.812;2022-12-18T01:23:50;60.97;;;26.77;;
39104;SDS011;46464;51.154;13.812;2022-12-18T01:26:18;60.57;;;25.20;;
39104;SDS011;46464;51.154;13.812;2022-12-18T01:36:05;76.80;;;27.77;;
39104;SDS011;46464;51.154;13.812;2022-12-18T01:38:34;57.42;;;23.77;;
39104;SDS011;46464;51.154;13.812;2022-12-18T01:41:01;54.60;;;23.97;;
39104;SDS011;46464;51.154;13.812;2022-12-18T01:43:40;52.57;;;23.80;;
39104;SDS011;46464;51.154;13.812;2022-12-18T01:46:11;46.57;;;22.30;;
39104;SDS011;46464;51.154;13.812;2022-12-18T01:48:38;46.67;;;20.53;;
39104;SDS011;46464;51.154;13.812;2022-12-18T01:51:06;49.87;;;21.13;;
39104;SDS011;46464;51.154;13.812;2022-12-18T01:53:35;46.27;;;21.43;;
39104;SDS011;46464;51.154;13.812;2022-12-18T01:56:06;52.50;;;22.73;;
39104;SDS011;46464;51.154;13.812;2022-12-18T02:01:05;39.67;;;19.33;;
39104;SDS011;46464;51.154;13.812;2022-12-18T02:03:32;38.08;;;18.50;;
39104;SDS011;46464;51.154;13.812;2022-12-18T02:06:11;48.08;;;20.98;;
39104;SDS011;46464;51.154;13.812;2022-12-18T02:08:48;42.47;;;19.70;;
39104;SDS011;46464;51.154;13.812;2022-12-18T02:22:26;40.30;;;18.47;;
39104;SDS011;46464;51.154;13.812;2022-12-18T02:27:58;39.70;;;18.27;;
39104;SDS011;46464;51.154;13.812;2022-12-18T02:30:29;46.40;;;21.70;;
39104;SDS011;46464;51.154;13.812;2022-12-18T02:32:59;44.47;;;21.00;;
39104;SDS011;46464;51.154;13.812;2022-12-18T02:35:31;44.77;;;20.07;;
39104;SDS011;46464;51.154;13.812;2022-12-18T02:38:00;38.80;;;19.43;;
39104;SDS011;46464;51.154;13.812;2022-12-18T02:40:29;37.13;;;18.20;;
39104;SDS011;46464;51.154;13.812;2022-12-18T02:43:30;41.53;;;19.53;;
39104;SDS011;46464;51.154;13.812;2022-12-18T02:45:50;37.40;;;18.77;;
39104;SDS011;46464;51.154;13.812;2022-12-18T02:48:22;39.10;;;19.60;;
39104;SDS011;46464;51.154;13.812;2022-12-18T02:50:55;46.60;;;21.33;;
39104;SDS011;46464;51.154;13.812;2022-12-18T02:53:45;37.40;;;19.13;;
39104;SDS011;46464;51.154;13.812;2022-12-18T02:56:25;42.40;;;19.27;;
39104;SDS011;46464;51.154;13.812;2022-12-18T02:59:16;41.67;;;19.60;;
39104;SDS011;46464;51.154;13.812;2022-12-18T03:04:57;47.00;;;20.83;;
39104;SDS011;46464;51.154;13.812;2022-12-18T03:10:53;38.83;;;18.80;;
39104;SDS011;46464;51.154;13.812;2022-12-18T03:16:25;43.03;;;20.30;;
39104;SDS011;46464;51.154;13.812;2022-12-18T03:18:55;38.37;;;19.30;;
39104;SDS011;46464;51.154;13.812;2022-12-18T03:21:32;42.83;;;18.67;;
39104;SDS011;46464;51.154;13.812;2022-12-18T03:24:07;38.07;;;18.70;;
39104;SDS011;46464;51.154;13.812;2022-12-18T03:26:35;34.43;;;17.63;;
39104;SDS011;46464;51.154;13.812;2022-12-18T03:29:07;38.80;;;17.63;;
39104;SDS011;46464;51.154;13.812;2022-12-18T03:31:40;44.57;;;20.63;;
39104;SDS011;46464;51.154;13.812;2022-12-18T03:34:19;38.47;;;18.77;;
39104;SDS011;46464;51.154;13.812;2022-12-18T03:36:53;45.33;;;18.67;;
39104;SDS011;46464;51.154;13.812;2022-12-18T03:39:19;34.38;;;17.92;;
39104;SDS011;46464;51.154;13.812;2022-12-18T03:41:48;37.63;;;16.90;;
39104;SDS011;46464;51.154;13.812;2022-12-18T03:44:29;39.50;;;18.07;;
39104;SDS011;46464;51.154;13.812;2022-12-18T03:47:16;37.30;;;18.13;;
39104;SDS011;46464;51.154;13.812;2022-12-18T03:52:36;34.53;;;15.97;;
39104;SDS011;46464;51.154;13.812;2022-12-18T03:55:08;34.50;;;17.37;;
39104;SDS011;46464;51.154;13.812;2022-12-18T03:57:37;38.83;;;18.00;;
39104;SDS011;46464;51.154;13.812;2022-12-18T04:00:09;35.37;;;16.63;;
39104;SDS011;46464;51.154;13.812;2022-12-18T04:02:39;33.73;;;15.97;;
39104;SDS011;46464;51.154;13.812;2022-12-18T04:05:10;36.23;;;16.73;;
39104;SDS011;46464;51.154;13.812;2022-12-18T04:07:39;34.33;;;17.50;;
39104;SDS011;46464;51.154;13.812;2022-12-18T04:10:06;33.47;;;15.83;;
39104;SDS011;46464;51.154;13.812;2022-12-18T04:12:35;33.43;;;16.17;;
39104;SDS011;46464;51.154;13.812;2022-12-18T04:15:04;37.50;;;17.57;;
39104;SDS011;46464;51.154;13.812;2022-12-18T04:17:31;37.83;;;15.43;;
39104;SDS011;46464;51.154;13.812;2022-12-18T04:19:58;36.22;;;16.20;;
39104;SDS011;46464;51.154;13.812;2022-12-18T04:22:24;35.63;;;17.05;;
39104;SDS011;46464;51.154;13.812;2022-12-18T04:24:51;34.58;;;15.70;;
39104;SDS011;46464;51.154;13.812;2022-12-18T04:27:17;36.35;;;16.60;;
39104;SDS011;46464;51.154;13.812;2022-12-18T04:29:44;29.83;;;15.25;;
39104;SDS011;46464;51.154;13.812;2022-12-18T04:32:10;31.70;;;15.68;;
39104;SDS011;46464;51.154;13.812;2022-12-18T04:34:37;33.35;;;15.90;;
39104;SDS011;46464;51.154;13.812;2022-12-18T04:37:03;35.92;;;17.63;;
39104;SDS011;46464;51.154;13.812;2022-12-18T04:39:30;30.50;;;14.90;;
39104;SDS011;46464;51.154;13.812;2022-12-18T04:41:57;34.47;;;16.20;;
39104;SDS011;46464;51.154;13.812;2022-12-18T04:44:26;30.55;;;15.20;;
39104;SDS011;46464;51.154;13.812;2022-12-18T04:46:53;38.57;;;17.10;;
39104;SDS011;46464;51.154;13.812;2022-12-18T04:49:19;31.08;;;15.57;;
39104;SDS011;46464;51.154;13.812;2022-12-18T04:51:46;35.20;;;17.25;;
39104;SDS011;46464;51.154;13.812;2022-12-18T04:54:12;35.28;;;17.35;;
39104;SDS011;46464;51.154;13.812;2022-12-18T04:59:05;26.53;;;13.70;;
39104;SDS011;46464;51.154;13.812;2022-12-18T05:01:32;33.33;;;15.30;;
39104;SDS011;46464;51.154;13.812;2022-12-18T05:04:01;28.87;;;14.63;;
39104;SDS011;46464;51.154;13.812;2022-12-18T05:06:28;33.97;;;15.20;;
39104;SDS011;46464;51.154;13.812;2022-12-18T05:08:54;34.40;;;14.80;;
39104;SDS011;46464;51.154;13.812;2022-12-18T05:11:21;34.45;;;15.63;;
39104;SDS011;46464;51.154;13.812;2022-12-18T05:13:48;36.30;;;16.88;;
39104;SDS011;46464;51.154;13.812;2022-12-18T05:16:14;34.60;;;16.73;;
39104;SDS011;46464;51.154;13.812;2022-12-18T05:21:08;32.53;;;14.27;;
39104;SDS011;46464;51.154;13.812;2022-12-18T05:26:03;37.57;;;15.63;;
39104;SDS011;46464;51.154;13.812;2022-12-18T05:28:31;38.50;;;16.20;;
39104;SDS011;46464;51.154;13.812;2022-12-18T05:31:01;34.97;;;15.37;;
39104;SDS011;46464;51.154;13.812;2022-12-18T05:33:30;32.40;;;16.33;;
39104;SDS011;46464;51.154;13.812;2022-12-18T05:35:59;32.03;;;15.13;;
39104;SDS011;46464;51.154;13.812;2022-12-18T05:38:29;40.33;;;18.23;;
39104;SDS011;46464;51.154;13.812;2022-12-18T05:40:58;35.13;;;16.73;;
39104;SDS011;46464;51.154;13.812;2022-12-18T05:45:52;32.87;;;15.30;;
39104;SDS011;46464;51.154;13.812;2022-12-18T05:48:19;34.23;;;14.93;;
39104;SDS011;46464;51.154;13.812;2022-12-18T05:50:47;34.07;;;16.10;;
39104;SDS011;46464;51.154;13.812;2022-12-18T05:53:17;32.93;;;15.20;;
39104;SDS011;46464;51.154;13.812;2022-12-18T05:55:45;32.20;;;15.47;;
39104;SDS011;46464;51.154;13.812;2022-12-18T05:58:13;30.87;;;15.77;;
39104;SDS011;46464;51.154;13.812;2022-12-18T06:00:42;32.10;;;16.80;;
39104;SDS011;46464;51.154;13.812;2022-12-18T06:03:11;37.70;;;17.33;;
39104;SDS011;46464;51.154;13.812;2022-12-18T06:05:39;37.03;;;17.23;;
39104;SDS011;46464;51.154;13.812;2022-12-18T06:08:07;36.73;;;19.07;;
39104;SDS011;46464;51.154;13.812;2022-12-18T06:10:34;38.50;;;17.77;;
39104;SDS011;46464;51.154;13.812;2022-12-18T06:13:01;41.57;;;18.73;;
39104;SDS011;46464;51.154;13.812;2022-12-18T06:15:28;35.63;;;17.40;;
39104;SDS011;46464;51.154;13.812;2022-12-18T06:17:54;40.47;;;17.23;;
39104;SDS011;46464;51.154;13.812;2022-12-18T06:20:21;36.20;;;17.38;;
39104;SDS011;46464;51.154;13.812;2022-12-18T06:22:47;38.90;;;18.63;;
39104;SDS011;46464;51.154;13.812;2022-12-18T06:25:14;41.33;;;19.93;;
39104;SDS011;46464;51.154;13.812;2022-12-18T06:27:41;37.80;;;18.20;;
39104;SDS011;46464;51.154;13.812;2022-12-18T06:30:09;39.43;;;17.93;;
39104;SDS011;46464;51.154;13.812;2022-12-18T06:32:36;41.80;;;21.57;;
39104;SDS011;46464;51.154;13.812;2022-12-18T06:35:02;37.63;;;20.63;;
39104;SDS011;46464;51.154;13.812;2022-12-18T06:37:30;45.80;;;21.40;;
39104;SDS011;46464;51.154;13.812;2022-12-18T06:39:57;47.43;;;21.77;;
39104;SDS011;46464;51.154;13.812;2022-12-18T06:42:24;40.72;;;18.48;;
39104;SDS011;46464;51.154;13.812;2022-12-18T06:44:51;45.23;;;19.83;;
39104;SDS011;46464;51.154;13.812;2022-12-18T06:47:17;49.78;;;21.95;;
39104;SDS011;46464;51.154;13.812;2022-12-18T06:49:44;52.17;;;24.23;;
39104;SDS011;46464;51.154;13.812;2022-12-18T06:52:11;46.17;;;20.98;;
39104;SDS011;46464;51.154;13.812;2022-12-18T06:54:38;47.63;;;22.48;;
39104;SDS011;46464;51.154;13.812;2022-12-18T06:57:04;46.17;;;20.83;;
39104;SDS011;46464;51.154;13.812;2022-12-18T06:59:31;48.53;;;20.30;;
39104;SDS011;46464;51.154;13.812;2022-12-18T07:01:57;43.92;;;20.67;;
39104;SDS011;46464;51.154;13.812;2022-12-18T07:04:28;43.00;;;20.77;;
39104;SDS011;46464;51.154;13.812;2022-12-18T07:06:56;39.17;;;19.20;;
39104;SDS011;46464;51.154;13.812;2022-12-18T07:09:23;45.23;;;20.37;;
39104;SDS011;46464;51.154;13.812;2022-12-18T07:11:51;54.03;;;23.23;;
39104;SDS011;46464;51.154;13.812;2022-12-18T07:14:17;51.95;;;21.52;;
39104;SDS011;46464;51.154;13.812;2022-12-18T07:16:44;42.40;;;20.30;;
39104;SDS011;46464;51.154;13.812;2022-12-18T07:19:10;48.97;;;19.65;;
39104;SDS011;46464;51.154;13.812;2022-12-18T07:21:37;44.65;;;20.58;;
39104;SDS011;46464;51.154;13.812;2022-12-18T07:24:04;38.97;;;19.52;;
39104;SDS011;46464;51.154;13.812;2022-12-18T07:26:31;43.83;;;20.40;;
39104;SDS011;46464;51.154;13.812;2022-12-18T07:31:24;44.03;;;21.77;;
39104;SDS011;46464;51.154;13.812;2022-12-18T07:33:51;44.10;;;21.37;;
39104;SDS011;46464;51.154;13.812;2022-12-18T07:38:48;42.60;;;19.23;;
39104;SDS011;46464;51.154;13.812;2022-12-18T07:41:16;47.00;;;23.57;;
39104;SDS011;46464;51.154;13.812;2022-12-18T07:46:10;42.93;;;20.03;;
39104;SDS011;46464;51.154;13.812;2022-12-18T07:48:42;59.00;;;25.40;;
39104;SDS011;46464;51.154;13.812;2022-12-18T07:51:15;50.37;;;26.10;;
39104;SDS011;46464;51.154;13.812;2022-12-18T07:53:43;56.47;;;26.80;;
39104;SDS011;46464;51.154;13.812;2022-12-18T07:58:55;63.33;;;28.17;;
39104;SDS011;46464;51.154;13.812;2022-12-18T08:01:23;57.80;;;30.80;;
39104;SDS011;46464;51.154;13.812;2022-12-18T08:03:51;52.60;;;29.30;;
39104;SDS011;46464;51.154;13.812;2022-12-18T08:08:48;41.23;;;16.80;;
39104;SDS011;46464;51.154;13.812;2022-12-18T08:11:15;36.27;;;15.90;;
39104;SDS011;46464;51.154;13.812;2022-12-18T08:13:42;39.85;;;16.48;;
39104;SDS011;46464;51.154;13.812;2022-12-18T08:18:36;31.07;;;14.83;;
39104;SDS011;46464;51.154;13.812;2022-12-18T08:23:37;35.53;;;15.57;;
39104;SDS011;46464;51.154;13.812;2022-12-18T08:26:08;33.63;;;16.10;;
39104;SDS011;46464;51.154;13.812;2022-12-18T08:28:35;41.07;;;17.57;;
39104;SDS011;46464;51.154;13.812;2022-12-18T08:31:02;41.50;;;17.95;;
39104;SDS011;46464;51.154;13.812;2022-12-18T08:35:55;37.53;;;16.20;;
39104;SDS011;46464;51.154;13.812;2022-12-18T08:38:21;39.97;;;17.30;;
39104;SDS011;46464;51.154;13.812;2022-12-18T08:40:49;39.97;;;18.00;;
39104;SDS011;46464;51.154;13.812;2022-12-18T08:43:15;39.35;;;19.75;;
39104;SDS011;46464;51.154;13.812;2022-12-18T08:46:01;39.43;;;18.87;;
39104;SDS011;46464;51.154;13.812;2022-12-18T08:48:27;41.33;;;17.63;;
39104;SDS011;46464;51.154;13.812;2022-12-18T08:50:57;41.80;;;17.95;;
39104;SDS011;46464;51.154;13.812;2022-12-18T08:53:25;44.83;;;21.10;;
39104;SDS011;46464;51.154;13.812;2022-12-18T08:56:00;48.00;;;20.03;;
39104;SDS011;46464;51.154;13.812;2022-12-18T08:58:27;46.53;;;21.17;;
39104;SDS011;46464;51.154;13.812;2022-12-18T09:00:53;37.03;;;19.88;;
39104;SDS011;46464;51.154;13.812;2022-12-18T09:03:20;43.75;;;20.90;;
39104;SDS011;46464;51.154;13.812;2022-12-18T09:05:48;37.53;;;18.70;;
39104;SDS011;46464;51.154;13.812;2022-12-18T09:08:15;36.10;;;17.80;;
39104;SDS011;46464;51.154;13.812;2022-12-18T09:10:42;32.72;;;16.67;;
39104;SDS011;46464;51.154;13.812;2022-12-18T09:13:11;34.40;;;16.77;;
39104;SDS011;46464;51.154;13.812;2022-12-18T09:15:41;31.50;;;17.43;;
39104;SDS011;46464;51.154;13.812;2022-12-18T09:18:09;33.77;;;17.70;;
39104;SDS011;46464;51.154;13.812;2022-12-18T09:20:36;33.35;;;16.45;;
39104;SDS011;46464;51.154;13.812;2022-12-18T09:23:03;30.87;;;16.60;;
39104;SDS011;46464;51.154;13.812;2022-12-18T09:25:30;32.30;;;17.20;;
39104;SDS011;46464;51.154;13.812;2022-12-18T09:27:59;28.70;;;16.60;;
39104;SDS011;46464;51.154;13.812;2022-12-18T09:30:26;34.43;;;18.20;;
39104;SDS011;46464;51.154;13.812;2022-12-18T09:37:47;34.67;;;16.83;;
39104;SDS011;46464;51.154;13.812;2022-12-18T09:40:14;31.60;;;18.45;;
39104;SDS011;46464;51.154;13.812;2022-12-18T09:42:48;32.63;;;17.27;;
39104;SDS011;46464;51.154;13.812;2022-12-18T09:45:25;34.77;;;18.43;;
39104;SDS011;46464;51.154;13.812;2022-12-18T09:47:52;37.85;;;18.02;;
39104;SDS011;46464;51.154;13.812;2022-12-18T09:52:48;27.52;;;13.23;;
39104;SDS011;46464;51.154;13.812;2022-12-18T09:55:22;36.07;;;18.43;;
39104;SDS011;46464;51.154;13.812;2022-12-18T09:58:46;38.67;;;18.30;;
39104;SDS011;46464;51.154;13.812;2022-12-18T10:00:57;33.95;;;17.90;;
39104;SDS011;46464;51.154;13.812;2022-12-18T10:03:24;39.30;;;18.45;;
39104;SDS011;46464;51.154;13.812;2022-12-18T10:06:10;34.10;;;18.17;;
39104;SDS011;46464;51.154;13.812;2022-12-18T10:17:10;40.97;;;20.67;;
39104;SDS011;46464;51.154;13.812;2022-12-18T10:22:21;38.67;;;18.67;;
39104;SDS011;46464;51.154;13.812;2022-12-18T10:27:47;36.27;;;19.13;;
39104;SDS011;46464;51.154;13.812;2022-12-18T10:30:18;33.63;;;18.73;;
39104;SDS011;46464;51.154;13.812;2022-12-18T10:32:47;36.37;;;19.17;;
39104;SDS011;46464;51.154;13.812;2022-12-18T10:35:21;37.47;;;18.27;;
39104;SDS011;46464;51.154;13.812;2022-12-18T10:40:27;32.50;;;18.70;;
39104;SDS011;46464;51.154;13.812;2022-12-18T10:45:41;31.97;;;16.00;;
39104;SDS011;46464;51.154;13.812;2022-12-18T10:48:18;36.63;;;18.97;;
39104;SDS011;46464;51.154;13.812;2022-12-18T10:50:47;35.87;;;18.40;;
39104;SDS011;46464;51.154;13.812;2022-12-18T10:53:36;37.27;;;18.83;;
39104;SDS011;46464;51.154;13.812;2022-12-18T10:56:04;37.63;;;18.27;;
39104;SDS011;46464;51.154;13.812;2022-12-18T10:58:36;36.93;;;19.20;;
39104;SDS011;46464;51.154;13.812;2022-12-18T11:03:41;34.07;;;19.17;;
39104;SDS011;46464;51.154;13.812;2022-12-18T11:06:15;35.80;;;18.23;;
39104;SDS011;46464;51.154;13.812;2022-12-18T11:08:58;34.03;;;18.20;;
39104;SDS011;46464;51.154;13.812;2022-12-18T11:11:24;35.43;;;17.20;;
39104;SDS011;46464;51.154;13.812;2022-12-18T11:16:45;33.87;;;17.57;;
39104;SDS011;46464;51.154;13.812;2022-12-18T11:19:37;35.67;;;17.87;;
39104;SDS011;46464;51.154;13.812;2022-12-18T11:22:28;37.53;;;18.17;;
39104;SDS011;46464;51.154;13.812;2022-12-18T11:25:06;34.97;;;17.77;;
39104;SDS011;46464;51.154;13.812;2022-12-18T11:28:01;36.67;;;18.80;;
39104;SDS011;46464;51.154;13.812;2022-12-18T11:30:34;31.67;;;17.80;;
39104;SDS011;46464;51.154;13.812;2022-12-18T11:33:06;34.87;;;18.47;;
39104;SDS011;46464;51.154;13.812;2022-12-18T11:38:17;35.03;;;18.13;;
39104;SDS011;46464;51.154;13.812;2022-12-18T11:43:50;38.43;;;18.60;;
39104;SDS011;46464;51.154;13.812;2022-12-18T11:46:30;32.20;;;17.17;;
39104;SDS011;46464;51.154;13.812;2022-12-18T11:49:44;36.50;;;18.10;;
39104;SDS011;46464;51.154;13.812;2022-12-18T11:54:52;33.00;;;17.03;;
39104;SDS011;46464;51.154;13.812;2022-12-18T12:02:35;34.53;;;17.85;;
39104;SDS011;46464;51.154;13.812;2022-12-18T12:22:03;30.50;;;16.73;;
39104;SDS011;46464;51.154;13.812;2022-12-18T12:30:10;28.40;;;14.90;;
39104;SDS011;46464;51.154;13.812;2022-12-18T12:38:17;29.33;;;15.77;;
39104;SDS011;46464;51.154;13.812;2022-12-18T12:40:54;29.70;;;16.27;;
39104;SDS011;46464;51.154;13.812;2022-12-18T12:43:32;28.23;;;15.53;;
39104;SDS011;46464;51.154;13.812;2022-12-18T12:46:09;22.38;;;13.35;;
39104;SDS011;46464;51.154;13.812;2022-12-18T12:48:45;30.87;;;15.80;;
39104;SDS011;46464;51.154;13.812;2022-12-18T12:51:17;27.70;;;14.43;;
39104;SDS011;46464;51.154;13.812;2022-12-18T12:53:47;28.73;;;14.67;;
39104;SDS011;46464;51.154;13.812;2022-12-18T12:56:16;26.95;;;15.48;;
39104;SDS011;46464;51.154;13.812;2022-12-18T13:07:05;30.00;;;16.38;;
39104;SDS011;46464;51.154;13.812;2022-12-18T13:13:10;28.17;;;15.30;;
39104;SDS011;46464;51.154;13.812;2022-12-18T13:16:06;29.00;;;15.20;;
39104;SDS011;46464;51.154;13.812;2022-12-18T13:18:34;27.07;;;15.07;;
39104;SDS011;46464;51.154;13.812;2022-12-18T13:23:33;31.80;;;17.10;;
39104;SDS011;46464;51.154;13.812;2022-12-18T13:34:20;30.43;;;16.33;;
39104;SDS011;46464;51.154;13.812;2022-12-18T13:36:54;31.50;;;18.60;;
39104;SDS011;46464;51.154;13.812;2022-12-18T13:39:32;33.53;;;17.90;;
39104;SDS011;46464;51.154;13.812;2022-12-18T13:44:34;32.43;;;16.83;;
39104;SDS011;46464;51.154;13.812;2022-12-18T13:47:33;40.57;;;19.20;;
39104;SDS011;46464;51.154;13.812;2022-12-18T13:50:20;37.17;;;18.47;;
39104;SDS011;46464;51.154;13.812;2022-12-18T13:53:20;40.83;;;20.10;;
39104;SDS011;46464;51.154;13.812;2022-12-18T13:55:51;44.27;;;21.70;;
39104;SDS011;46464;51.154;13.812;2022-12-18T13:58:18;40.73;;;20.33;;
39104;SDS011;46464;51.154;13.812;2022-12-18T14:00:45;37.28;;;19.65;;
39104;SDS011;46464;51.154;13.812;2022-12-18T14:03:19;38.93;;;19.90;;
39104;SDS011;46464;51.154;13.812;2022-12-18T14:05:56;49.63;;;23.60;;
39104;SDS011;46464;51.154;13.812;2022-12-18T14:08:29;35.10;;;19.37;;
39104;SDS011;46464;51.154;13.812;2022-12-18T14:10:59;31.50;;;15.83;;
39104;SDS011;46464;51.154;13.812;2022-12-18T14:13:29;31.20;;;16.43;;
39104;SDS011;46464;51.154;13.812;2022-12-18T14:15:58;29.70;;;15.03;;
39104;SDS011;46464;51.154;13.812;2022-12-18T14:18:32;24.47;;;13.13;;
39104;SDS011;46464;51.154;13.812;2022-12-18T14:21:05;26.40;;;14.23;;
39104;SDS011;46464;51.154;13.812;2022-12-18T14:26:21;25.97;;;13.97;;
39104;SDS011;46464;51.154;13.812;2022-12-18T14:28:56;25.90;;;13.43;;
39104;SDS011;46464;51.154;13.812;2022-12-18T14:31:25;31.80;;;14.50;;
39104;SDS011;46464;51.154;13.812;2022-12-18T14:33:53;26.60;;;13.77;;
39104;SDS011;46464;51.154;13.812;2022-12-18T14:36:27;26.42;;;14.57;;
39104;SDS011;46464;51.154;13.812;2022-12-18T14:38:55;24.87;;;13.53;;
39104;SDS011;46464;51.154;13.812;2022-12-18T14:41:23;30.07;;;13.73;;
39104;SDS011;46464;51.154;13.812;2022-12-18T14:43:53;24.53;;;12.73;;
39104;SDS011;46464;51.154;13.812;2022-12-18T14:47:01;25.77;;;13.57;;
39104;SDS011;46464;51.154;13.812;2022-12-18T14:49:31;27.15;;;12.45;;
39104;SDS011;46464;51.154;13.812;2022-12-18T14:52:04;24.80;;;13.07;;
39104;SDS011;46464;51.154;13.812;2022-12-18T14:54:33;26.90;;;13.50;;
39104;SDS011;46464;51.154;13.812;2022-12-18T14:57:46;26.13;;;13.60;;
39104;SDS011;46464;51.154;13.812;2022-12-18T15:00:05;28.33;;;14.27;;
39104;SDS011;46464;51.154;13.812;2022-12-18T15:02:34;28.43;;;13.50;;
39104;SDS011;46464;51.154;13.812;2022-12-18T15:05:16;26.37;;;13.60;;
39104;SDS011;46464;51.154;13.812;2022-12-18T15:07:46;24.20;;;13.20;;
39104;SDS011;46464;51.154;13.812;2022-12-18T15:10:24;27.37;;;13.50;;
39104;SDS011;46464;51.154;13.812;2022-12-18T15:18:10;29.57;;;13.53;;
39104;SDS011;46464;51.154;13.812;2022-12-18T15:20:56;25.52;;;13.80;;
39104;SDS011;46464;51.154;13.812;2022-12-18T15:24:13;29.93;;;13.40;;
39104;SDS011;46464;51.154;13.812;2022-12-18T15:26:44;26.23;;;13.37;;
39104;SDS011;46464;51.154;13.812;2022-12-18T15:29:22;29.48;;;14.38;;
39104;SDS011;46464;51.154;13.812;2022-12-18T15:31:59;28.23;;;15.37;;
39104;SDS011;46464;51.154;13.812;2022-12-18T15:34:46;30.07;;;14.93;;
39104;SDS011;46464;51.154;13.812;2022-12-18T15:37:12;28.17;;;14.50;;
39104;SDS011;46464;51.154;13.812;2022-12-18T15:39:39;28.33;;;13.73;;
39104;SDS011;46464;51.154;13.812;2022-12-18T15:42:07;29.58;;;15.02;;
39104;SDS011;46464;51.154;13.812;2022-12-18T15:44:53;31.43;;;14.80;;
39104;SDS011;46464;51.154;13.812;2022-12-18T15:47:20;30.13;;;15.30;;
39104;SDS011;46464;51.154;13.812;2022-12-18T15:49:46;35.90;;;15.60;;
39104;SDS011;46464;51.154;13.812;2022-12-18T15:52:13;28.67;;;15.55;;
39104;SDS011;46464;51.154;13.812;2022-12-18T15:54:40;29.60;;;14.60;;
39104;SDS011;46464;51.154;13.812;2022-12-18T15:57:25;31.93;;;15.00;;
39104;SDS011;46464;51.154;13.812;2022-12-18T15:59:53;32.27;;;15.67;;
39104;SDS011;46464;51.154;13.812;2022-12-18T16:02:24;30.57;;;15.70;;
39104;SDS011;46464;51.154;13.812;2022-12-18T16:04:52;30.20;;;15.97;;
39104;SDS011;46464;51.154;13.812;2022-12-18T16:07:18;34.58;;;15.48;;
39104;SDS011;46464;51.154;13.812;2022-12-18T16:09:51;27.67;;;14.97;;
39104;SDS011;46464;51.154;13.812;2022-12-18T16:12:19;31.92;;;15.90;;
39104;SDS011;46464;51.154;13.812;2022-12-18T16:14:48;32.17;;;15.50;;
39104;SDS011;46464;51.154;13.812;2022-12-18T16:17:15;30.80;;;14.82;;
39104;SDS011;46464;51.154;13.812;2022-12-18T16:22:17;34.90;;;16.30;;
39104;SDS011;46464;51.154;13.812;2022-12-18T16:24:48;29.43;;;14.07;;
39104;SDS011;46464;51.154;13.812;2022-12-18T16:27:16;29.30;;;14.63;;
39104;SDS011;46464;51.154;13.812;2022-12-18T16:34:41;36.80;;;14.47;;
39104;SDS011;46464;51.154;13.812;2022-12-18T16:37:08;28.57;;;14.93;;
39104;SDS011;46464;51.154;13.812;2022-12-18T16:39:36;32.30;;;15.37;;
39104;SDS011;46464;51.154;13.812;2022-12-18T16:42:05;28.97;;;14.23;;
39104;SDS011;46464;51.154;13.812;2022-12-18T16:44:45;33.07;;;15.73;;
39104;SDS011;46464;51.154;13.812;2022-12-18T16:47:12;33.23;;;15.60;;
39104;SDS011;46464;51.154;13.812;2022-12-18T16:49:40;30.03;;;15.27;;
39104;SDS011;46464;51.154;13.812;2022-12-18T16:52:07;37.23;;;17.20;;
39104;SDS011;46464;51.154;13.812;2022-12-18T16:54:34;28.95;;;15.63;;
39104;SDS011;46464;51.154;13.812;2022-12-18T16:57:02;33.07;;;16.37;;
39104;SDS011;46464;51.154;13.812;2022-12-18T16:59:30;32.70;;;15.67;;
39104;SDS011;46464;51.154;13.812;2022-12-18T17:01:57;34.10;;;16.77;;
39104;SDS011;46464;51.154;13.812;2022-12-18T17:04:24;31.80;;;16.35;;
39104;SDS011;46464;51.154;13.812;2022-12-18T17:06:51;33.83;;;16.75;;
39104;SDS011;46464;51.154;13.812;2022-12-18T17:09:19;28.93;;;16.03;;
39104;SDS011;46464;51.154;13.812;2022-12-18T17:11:50;33.53;;;16.00;;
39104;SDS011;46464;51.154;13.812;2022-12-18T17:14:20;34.87;;;16.00;;
39104;SDS011;46464;51.154;13.812;2022-12-18T17:16:48;33.43;;;15.40;;
39104;SDS011;46464;51.154;13.812;2022-12-18T17:19:35;30.73;;;15.73;;
39104;SDS011;46464;51.154;13.812;2022-12-18T17:22:02;35.40;;;16.75;;
39104;SDS011;46464;51.154;13.812;2022-12-18T17:24:29;29.90;;;15.67;;
39104;SDS011;46464;51.154;13.812;2022-12-18T17:27:00;35.23;;;16.37;;
39104;SDS011;46464;51.154;13.812;2022-12-18T17:29:27;28.85;;;15.05;;
39104;SDS011;46464;51.154;13.812;2022-12-18T17:31:53;40.33;;;16.40;;
39104;SDS011;46464;51.154;13.812;2022-12-18T17:34:22;33.47;;;16.60;;
39104;SDS011;46464;51.154;13.812;2022-12-18T17:39:17;30.35;;;15.23;;
39104;SDS011;46464;51.154;13.812;2022-12-18T17:41:45;32.30;;;16.67;;
39104;SDS011;46464;51.154;13.812;2022-12-18T17:46:38;32.58;;;15.05;;